sensor_id;sensor_type;location;lat;lon;timestamp;temperature;humidity
11736;DHT22;5924;51.398;7.088;2024-01-11T00:00:59;-7.40;99.90
11736;DHT22;5924;51.398;7.088;2024-01-11T00:03:24;-7.50;99.90
11736;DHT22;5924;51.398;7.088;2024-01-11T00:05:50;-7.40;99.90
11736;DHT22;5924;51.398;7.088;2024-01-11T00:08:16;-7.40;99.90
11736;DHT22;5924;51.398;7.088;2024-01-11T00:10:42;-7.50;99.90
11736;DHT22;5924;51.398;7.088;2024-01-11T00:13:07;-7.50;99.90
11736;DHT22;5924;51.398;7.088;2024-01-11T00:15:33;-7.50;99.90
11736;DHT22;5924;51.398;7.088;2024-01-11T00:17:58;-7.60;99.90
11736;DHT22;5924;51.398;7.088;2024-01-11T00:20:24;-7.60;99.90
11736;DHT22;5924;51.398;7.088;2024-01-11T00:22:50;-7.60;99.90
11736;DHT22;5924;51.398;7.088;2024-01-11T00:25:15;-6.50;99.90
11736;DHT22;5924;51.398;7.088;2024-01-11T00:27:41;-7.60;99.90
11736;DHT22;5924;51.398;7.088;2024-01-11T00:30:07;-7.60;99.90
11736;DHT22;5924;51.398;7.088;2024-01-11T00:32:33;-7.60;99.90
11736;DHT22;5924;51.398;7.088;2024-01-11T00:34:58;-7.60;99.90
11736;DHT22;5924;51.398;7.088;2024-01-11T00:37:24;-7.60;99.90
11736;DHT22;5924;51.398;7.088;2024-01-11T00:39:50;-6.90;99.90
11736;DHT22;5924;51.398;7.088;2024-01-11T00:42:16;-7.70;99.90
11736;DHT22;5924;51.398;7.088;2024-01-11T00:44:42;-7.70;99.90
11736;DHT22;5924;51.398;7.088;2024-01-11T00:47:07;-7.70;99.90
11736;DHT22;5924;51.398;7.088;2024-01-11T00:49:33;-7.80;99.90
11736;DHT22;5924;51.398;7.088;2024-01-11T00:51:58;-7.80;99.90
11736;DHT22;5924;51.398;7.088;2024-01-11T00:54:24;-10.20;99.90
11736;DHT22;5924;51.398;7.088;2024-01-11T00:56:50;-7.80;99.90
11736;DHT22;5924;51.398;7.088;2024-01-11T00:59:16;-7.80;99.90
11736;DHT22;5924;51.398;7.088;2024-01-11T01:01:49;-9.80;99.90
11736;DHT22;5924;51.398;7.088;2024-01-11T01:04:15;-7.80;99.90
11736;DHT22;5924;51.398;7.088;2024-01-11T01:06:41;-7.80;99.90
11736;DHT22;5924;51.398;7.088;2024-01-11T01:09:08;-7.80;99.90
11736;DHT22;5924;51.398;7.088;2024-01-11T01:11:33;-7.80;99.90
11736;DHT22;5924;51.398;7.088;2024-01-11T01:13:59;-7.80;99.90
11736;DHT22;5924;51.398;7.088;2024-01-11T01:16:25;-7.80;99.90
11736;DHT22;5924;51.398;7.088;2024-01-11T01:18:50;-7.90;99.90
11736;DHT22;5924;51.398;7.088;2024-01-11T01:21:16;-6.50;99.90
11736;DHT22;5924;51.398;7.088;2024-01-11T01:23:42;-7.90;99.90
11736;DHT22;5924;51.398;7.088;2024-01-11T01:26:07;-7.90;99.90
11736;DHT22;5924;51.398;7.088;2024-01-11T01:28:33;-7.90;99.90
11736;DHT22;5924;51.398;7.088;2024-01-11T01:30:59;-7.90;99.90
11736;DHT22;5924;51.398;7.088;2024-01-11T01:33:24;-7.80;99.90
11736;DHT22;5924;51.398;7.088;2024-01-11T01:35:50;-5.60;99.90
11736;DHT22;5924;51.398;7.088;2024-01-11T01:38:15;-7.80;99.90
11736;DHT22;5924;51.398;7.088;2024-01-11T01:40:43;-7.90;99.90
11736;DHT22;5924;51.398;7.088;2024-01-11T01:43:09;-7.80;99.90
11736;DHT22;5924;51.398;7.088;2024-01-11T01:45:35;-4.80;99.90
11736;DHT22;5924;51.398;7.088;2024-01-11T01:48:02;-7.70;99.90
11736;DHT22;5924;51.398;7.088;2024-01-11T01:50:28;-7.80;99.90
11736;DHT22;5924;51.398;7.088;2024-01-11T01:52:54;-7.70;99.90
11736;DHT22;5924;51.398;7.088;2024-01-11T01:55:22;-7.80;99.90
11736;DHT22;5924;51.398;7.088;2024-01-11T01:57:49;-7.90;99.90
11736;DHT22;5924;51.398;7.088;2024-01-11T02:00:15;-7.90;99.90
11736;DHT22;5924;51.398;7.088;2024-01-11T02:02:43;-8.00;99.90
11736;DHT22;5924;51.398;7.088;2024-01-11T02:05:11;-8.00;99.90
11736;DHT22;5924;51.398;7.088;2024-01-11T02:07:38;-8.10;99.90
11736;DHT22;5924;51.398;7.088;2024-01-11T02:10:05;-8.10;99.90
11736;DHT22;5924;51.398;7.088;2024-01-11T02:12:32;-8.10;99.90
11736;DHT22;5924;51.398;7.088;2024-01-11T02:14:59;-8.20;99.90
11736;DHT22;5924;51.398;7.088;2024-01-11T02:17:25;-8.20;99.90
11736;DHT22;5924;51.398;7.088;2024-01-11T02:19:51;-8.20;99.90
11736;DHT22;5924;51.398;7.088;2024-01-11T02:22:22;-8.20;99.90
11736;DHT22;5924;51.398;7.088;2024-01-11T02:24:49;-8.20;99.90
11736;DHT22;5924;51.398;7.088;2024-01-11T02:27:15;-8.20;99.90
11736;DHT22;5924;51.398;7.088;2024-01-11T02:29:41;-8.30;99.90
11736;DHT22;5924;51.398;7.088;2024-01-11T02:32:06;-8.30;99.90
11736;DHT22;5924;51.398;7.088;2024-01-11T02:34:33;-8.30;99.90
11736;DHT22;5924;51.398;7.088;2024-01-11T02:36:59;-8.30;99.90
11736;DHT22;5924;51.398;7.088;2024-01-11T02:39:26;-8.20;99.90
11736;DHT22;5924;51.398;7.088;2024-01-11T02:41:53;-8.30;99.90
11736;DHT22;5924;51.398;7.088;2024-01-11T02:44:18;-8.20;99.90
11736;DHT22;5924;51.398;7.088;2024-01-11T02:46:44;-8.30;99.90
11736;DHT22;5924;51.398;7.088;2024-01-11T02:49:10;-8.30;99.90
11736;DHT22;5924;51.398;7.088;2024-01-11T02:51:35;-8.30;99.90
11736;DHT22;5924;51.398;7.088;2024-01-11T02:54:02;-8.30;99.90
11736;DHT22;5924;51.398;7.088;2024-01-11T02:56:27;-8.40;99.90
11736;DHT22;5924;51.398;7.088;2024-01-11T02:58:53;-8.40;99.90
11736;DHT22;5924;51.398;7.088;2024-01-11T03:01:19;-8.40;99.90
11736;DHT22;5924;51.398;7.088;2024-01-11T03:03:44;-8.40;99.90
11736;DHT22;5924;51.398;7.088;2024-01-11T03:06:10;-8.40;99.90
11736;DHT22;5924;51.398;7.088;2024-01-11T03:08:35;-8.40;99.90
11736;DHT22;5924;51.398;7.088;2024-01-11T03:11:01;-8.40;99.90
11736;DHT22;5924;51.398;7.088;2024-01-11T03:13:27;-7.80;99.90
11736;DHT22;5924;51.398;7.088;2024-01-11T03:15:53;-8.40;99.90
11736;DHT22;5924;51.398;7.088;2024-01-11T03:18:18;-8.40;99.90
11736;DHT22;5924;51.398;7.088;2024-01-11T03:20:44;-8.50;99.90
11736;DHT22;5924;51.398;7.088;2024-01-11T03:23:10;-6.90;99.90
11736;DHT22;5924;51.398;7.088;2024-01-11T03:25:35;-8.50;99.90
11736;DHT22;5924;51.398;7.088;2024-01-11T03:28:01;-8.50;99.90
11736;DHT22;5924;51.398;7.088;2024-01-11T03:30:27;-8.60;99.90
11736;DHT22;5924;51.398;7.088;2024-01-11T03:32:53;-8.60;99.90
11736;DHT22;5924;51.398;7.088;2024-01-11T03:35:19;-8.60;99.90
11736;DHT22;5924;51.398;7.088;2024-01-11T03:37:45;-8.60;99.90
11736;DHT22;5924;51.398;7.088;2024-01-11T03:40:11;-8.60;99.90
11736;DHT22;5924;51.398;7.088;2024-01-11T03:42:37;-8.70;99.90
11736;DHT22;5924;51.398;7.088;2024-01-11T03:45:03;-8.70;99.90
11736;DHT22;5924;51.398;7.088;2024-01-11T03:47:29;-8.70;99.90
11736;DHT22;5924;51.398;7.088;2024-01-11T03:49:55;-8.70;99.90
11736;DHT22;5924;51.398;7.088;2024-01-11T03:52:21;-5.80;99.90
11736;DHT22;5924;51.398;7.088;2024-01-11T03:54:46;-8.70;99.90
11736;DHT22;5924;51.398;7.088;2024-01-11T03:57:12;-8.60;99.90
11736;DHT22;5924;51.398;7.088;2024-01-11T03:59:38;-8.60;99.90
11736;DHT22;5924;51.398;7.088;2024-01-11T04:02:04;-8.60;99.90
11736;DHT22;5924;51.398;7.088;2024-01-11T04:04:29;-8.60;99.90
11736;DHT22;5924;51.398;7.088;2024-01-11T04:06:55;-8.60;99.90
11736;DHT22;5924;51.398;7.088;2024-01-11T04:09:20;-8.60;99.90
11736;DHT22;5924;51.398;7.088;2024-01-11T04:11:46;-8.70;99.90
11736;DHT22;5924;51.398;7.088;2024-01-11T04:14:12;-8.70;99.90
11736;DHT22;5924;51.398;7.088;2024-01-11T04:16:44;-8.80;99.90
11736;DHT22;5924;51.398;7.088;2024-01-11T04:19:10;-8.70;99.90
11736;DHT22;5924;51.398;7.088;2024-01-11T04:21:36;-8.80;99.90
11736;DHT22;5924;51.398;7.088;2024-01-11T04:24:04;-8.80;99.90
11736;DHT22;5924;51.398;7.088;2024-01-11T04:26:31;-8.80;99.90
11736;DHT22;5924;51.398;7.088;2024-01-11T04:28:56;-8.90;99.90
11736;DHT22;5924;51.398;7.088;2024-01-11T04:31:23;-8.90;99.90
11736;DHT22;5924;51.398;7.088;2024-01-11T04:33:49;-8.90;99.90
11736;DHT22;5924;51.398;7.088;2024-01-11T04:36:15;-8.90;99.90
11736;DHT22;5924;51.398;7.088;2024-01-11T04:38:40;-8.90;99.90
11736;DHT22;5924;51.398;7.088;2024-01-11T04:41:10;-8.90;99.90
11736;DHT22;5924;51.398;7.088;2024-01-11T04:43:40;-8.90;99.90
11736;DHT22;5924;51.398;7.088;2024-01-11T04:46:20;-8.90;99.90
11736;DHT22;5924;51.398;7.088;2024-01-11T04:48:46;-8.90;99.90
11736;DHT22;5924;51.398;7.088;2024-01-11T04:51:13;-8.90;99.90
11736;DHT22;5924;51.398;7.088;2024-01-11T04:53:43;-8.90;99.90
11736;DHT22;5924;51.398;7.088;2024-01-11T04:56:10;-8.90;99.90
11736;DHT22;5924;51.398;7.088;2024-01-11T04:58:36;-8.40;99.90
11736;DHT22;5924;51.398;7.088;2024-01-11T05:01:04;-8.90;99.90
11736;DHT22;5924;51.398;7.088;2024-01-11T05:03:30;-8.90;99.90
11736;DHT22;5924;51.398;7.088;2024-01-11T05:05:57;-8.90;99.90
11736;DHT22;5924;51.398;7.088;2024-01-11T05:08:23;-9.00;99.90
11736;DHT22;5924;51.398;7.088;2024-01-11T05:10:49;-9.00;99.90
11736;DHT22;5924;51.398;7.088;2024-01-11T05:13:15;-9.00;99.90
11736;DHT22;5924;51.398;7.088;2024-01-11T05:15:40;-9.00;99.90
11736;DHT22;5924;51.398;7.088;2024-01-11T05:18:06;-9.00;99.90
11736;DHT22;5924;51.398;7.088;2024-01-11T05:20:32;-9.00;99.90
11736;DHT22;5924;51.398;7.088;2024-01-11T05:22:57;-9.00;99.90
11736;DHT22;5924;51.398;7.088;2024-01-11T05:25:23;-9.00;99.90
11736;DHT22;5924;51.398;7.088;2024-01-11T05:27:49;-9.00;99.90
11736;DHT22;5924;51.398;7.088;2024-01-11T05:30:14;-9.00;99.90
11736;DHT22;5924;51.398;7.088;2024-01-11T05:32:40;-9.00;99.90
11736;DHT22;5924;51.398;7.088;2024-01-11T05:35:05;-8.90;99.90
11736;DHT22;5924;51.398;7.088;2024-01-11T05:37:31;-9.00;99.90
11736;DHT22;5924;51.398;7.088;2024-01-11T05:39:57;-8.90;99.90
11736;DHT22;5924;51.398;7.088;2024-01-11T05:42:23;-8.90;99.90
11736;DHT22;5924;51.398;7.088;2024-01-11T05:44:50;-8.90;99.90
11736;DHT22;5924;51.398;7.088;2024-01-11T05:47:15;-8.20;99.90
11736;DHT22;5924;51.398;7.088;2024-01-11T05:49:41;-8.90;99.90
11736;DHT22;5924;51.398;7.088;2024-01-11T05:52:06;-8.90;99.90
11736;DHT22;5924;51.398;7.088;2024-01-11T05:54:32;-8.90;99.90
11736;DHT22;5924;51.398;7.088;2024-01-11T05:56:58;-8.90;99.90
11736;DHT22;5924;51.398;7.088;2024-01-11T05:59:24;-8.90;99.90
11736;DHT22;5924;51.398;7.088;2024-01-11T06:01:50;-8.80;99.90
11736;DHT22;5924;51.398;7.088;2024-01-11T06:04:16;-8.80;99.90
11736;DHT22;5924;51.398;7.088;2024-01-11T06:06:42;-8.80;99.90
11736;DHT22;5924;51.398;7.088;2024-01-11T06:09:08;-8.80;99.90
11736;DHT22;5924;51.398;7.088;2024-01-11T06:11:33;-7.10;99.90
11736;DHT22;5924;51.398;7.088;2024-01-11T06:13:59;-8.90;99.90
11736;DHT22;5924;51.398;7.088;2024-01-11T06:16:26;-8.90;99.90
11736;DHT22;5924;51.398;7.088;2024-01-11T06:18:52;-8.90;99.90
11736;DHT22;5924;51.398;7.088;2024-01-11T06:21:18;-8.80;99.90
11736;DHT22;5924;51.398;7.088;2024-01-11T06:23:44;-8.80;99.90
11736;DHT22;5924;51.398;7.088;2024-01-11T06:26:09;-8.80;99.90
11736;DHT22;5924;51.398;7.088;2024-01-11T06:28:35;-8.80;99.90
11736;DHT22;5924;51.398;7.088;2024-01-11T06:31:01;-8.80;99.90
11736;DHT22;5924;51.398;7.088;2024-01-11T06:33:26;-8.80;99.90
11736;DHT22;5924;51.398;7.088;2024-01-11T06:35:52;-8.80;99.90
11736;DHT22;5924;51.398;7.088;2024-01-11T06:38:18;-8.80;99.90
11736;DHT22;5924;51.398;7.088;2024-01-11T06:40:44;-8.80;99.90
11736;DHT22;5924;51.398;7.088;2024-01-11T06:43:09;-8.80;99.90
11736;DHT22;5924;51.398;7.088;2024-01-11T06:45:35;-8.80;99.90
11736;DHT22;5924;51.398;7.088;2024-01-11T06:48:01;-8.80;99.90
11736;DHT22;5924;51.398;7.088;2024-01-11T06:50:26;-8.90;99.90
11736;DHT22;5924;51.398;7.088;2024-01-11T06:52:52;-8.90;99.90
11736;DHT22;5924;51.398;7.088;2024-01-11T06:55:18;-8.90;99.90
11736;DHT22;5924;51.398;7.088;2024-01-11T06:57:47;-8.90;99.90
11736;DHT22;5924;51.398;7.088;2024-01-11T07:00:13;-8.80;99.90
11736;DHT22;5924;51.398;7.088;2024-01-11T07:02:39;-8.80;99.90
11736;DHT22;5924;51.398;7.088;2024-01-11T07:05:06;-8.80;99.90
11736;DHT22;5924;51.398;7.088;2024-01-11T07:07:31;-8.80;99.90
11736;DHT22;5924;51.398;7.088;2024-01-11T07:09:58;-8.90;99.90
11736;DHT22;5924;51.398;7.088;2024-01-11T07:12:24;-8.80;99.90
11736;DHT22;5924;51.398;7.088;2024-01-11T07:14:50;-8.90;99.90
11736;DHT22;5924;51.398;7.088;2024-01-11T07:17:15;-8.80;99.90
11736;DHT22;5924;51.398;7.088;2024-01-11T07:19:41;-8.70;99.90
11736;DHT22;5924;51.398;7.088;2024-01-11T07:22:07;-8.70;99.90
11736;DHT22;5924;51.398;7.088;2024-01-11T07:24:32;-8.70;99.90
11736;DHT22;5924;51.398;7.088;2024-01-11T07:27:06;-8.70;99.90
11736;DHT22;5924;51.398;7.088;2024-01-11T07:29:33;-8.80;99.90
11736;DHT22;5924;51.398;7.088;2024-01-11T07:31:59;-8.80;99.90
11736;DHT22;5924;51.398;7.088;2024-01-11T07:34:26;-8.80;99.90
11736;DHT22;5924;51.398;7.088;2024-01-11T07:36:52;-8.80;99.90
11736;DHT22;5924;51.398;7.088;2024-01-11T07:39:18;-8.80;99.90
11736;DHT22;5924;51.398;7.088;2024-01-11T07:41:43;-8.80;99.90
11736;DHT22;5924;51.398;7.088;2024-01-11T07:44:09;-8.80;99.90
11736;DHT22;5924;51.398;7.088;2024-01-11T07:46:35;-8.70;99.90
11736;DHT22;5924;51.398;7.088;2024-01-11T07:49:04;-8.70;99.90
11736;DHT22;5924;51.398;7.088;2024-01-11T07:51:30;-8.60;99.90
11736;DHT22;5924;51.398;7.088;2024-01-11T07:53:56;-8.50;99.90
11736;DHT22;5924;51.398;7.088;2024-01-11T07:56:21;-8.50;99.90
11736;DHT22;5924;51.398;7.088;2024-01-11T07:58:47;-8.40;99.90
11736;DHT22;5924;51.398;7.088;2024-01-11T08:01:14;-8.50;99.90
11736;DHT22;5924;51.398;7.088;2024-01-11T08:03:41;-8.50;99.90
11736;DHT22;5924;51.398;7.088;2024-01-11T08:06:07;-8.50;99.90
11736;DHT22;5924;51.398;7.088;2024-01-11T08:08:34;-8.40;99.90
11736;DHT22;5924;51.398;7.088;2024-01-11T08:10:59;-8.20;99.90
11736;DHT22;5924;51.398;7.088;2024-01-11T08:13:25;-8.30;99.90
11736;DHT22;5924;51.398;7.088;2024-01-11T08:15:51;-8.30;99.90
11736;DHT22;5924;51.398;7.088;2024-01-11T08:18:18;-8.20;99.90
11736;DHT22;5924;51.398;7.088;2024-01-11T08:20:44;-8.20;99.90
11736;DHT22;5924;51.398;7.088;2024-01-11T08:23:10;-8.20;99.90
11736;DHT22;5924;51.398;7.088;2024-01-11T08:25:35;-8.10;99.90
11736;DHT22;5924;51.398;7.088;2024-01-11T08:28:01;-8.10;99.90
11736;DHT22;5924;51.398;7.088;2024-01-11T08:30:28;-7.90;99.90
11736;DHT22;5924;51.398;7.088;2024-01-11T08:32:54;-8.10;99.90
11736;DHT22;5924;51.398;7.088;2024-01-11T08:35:21;-8.00;99.90
11736;DHT22;5924;51.398;7.088;2024-01-11T08:37:46;-8.00;99.90
11736;DHT22;5924;51.398;7.088;2024-01-11T08:40:12;-7.90;99.90
11736;DHT22;5924;51.398;7.088;2024-01-11T08:42:38;-7.90;99.90
11736;DHT22;5924;51.398;7.088;2024-01-11T08:45:06;-7.90;99.90
11736;DHT22;5924;51.398;7.088;2024-01-11T08:47:36;-7.80;99.90
11736;DHT22;5924;51.398;7.088;2024-01-11T08:50:04;-7.80;99.90
11736;DHT22;5924;51.398;7.088;2024-01-11T08:52:32;-7.70;99.90
11736;DHT22;5924;51.398;7.088;2024-01-11T08:54:58;-7.70;99.90
11736;DHT22;5924;51.398;7.088;2024-01-11T08:57:24;-7.60;99.90
11736;DHT22;5924;51.398;7.088;2024-01-11T08:59:49;-7.60;99.90
11736;DHT22;5924;51.398;7.088;2024-01-11T09:02:15;-7.50;99.90
11736;DHT22;5924;51.398;7.088;2024-01-11T09:04:41;-7.50;99.90
11736;DHT22;5924;51.398;7.088;2024-01-11T09:07:06;-9.30;99.90
11736;DHT22;5924;51.398;7.088;2024-01-11T09:09:32;-7.40;99.90
11736;DHT22;5924;51.398;7.088;2024-01-11T09:11:58;-7.30;99.90
11736;DHT22;5924;51.398;7.088;2024-01-11T09:14:23;-7.20;99.90
11736;DHT22;5924;51.398;7.088;2024-01-11T09:16:49;-7.20;99.90
11736;DHT22;5924;51.398;7.088;2024-01-11T09:19:15;-7.10;99.90
11736;DHT22;5924;51.398;7.088;2024-01-11T09:21:41;-7.10;99.90
11736;DHT22;5924;51.398;7.088;2024-01-11T09:24:07;-6.90;99.90
11736;DHT22;5924;51.398;7.088;2024-01-11T09:26:33;-6.10;99.90
11736;DHT22;5924;51.398;7.088;2024-01-11T09:28:59;-6.80;99.90
11736;DHT22;5924;51.398;7.088;2024-01-11T09:31:24;-6.70;99.90
11736;DHT22;5924;51.398;7.088;2024-01-11T09:33:50;-6.60;99.90
11736;DHT22;5924;51.398;7.088;2024-01-11T09:36:16;-6.50;99.90
11736;DHT22;5924;51.398;7.088;2024-01-11T09:38:41;-6.40;99.90
11736;DHT22;5924;51.398;7.088;2024-01-11T09:41:08;-3.30;99.90
11736;DHT22;5924;51.398;7.088;2024-01-11T09:43:35;-6.10;99.90
11736;DHT22;5924;51.398;7.088;2024-01-11T09:46:04;-6.00;99.90
11736;DHT22;5924;51.398;7.088;2024-01-11T09:48:34;-5.90;99.90
11736;DHT22;5924;51.398;7.088;2024-01-11T09:51:08;-5.80;99.90
11736;DHT22;5924;51.398;7.088;2024-01-11T09:53:36;-5.70;99.90
11736;DHT22;5924;51.398;7.088;2024-01-11T09:56:07;-5.60;99.90
11736;DHT22;5924;51.398;7.088;2024-01-11T09:58:35;-5.50;99.90
11736;DHT22;5924;51.398;7.088;2024-01-11T10:01:09;-5.40;99.90
11736;DHT22;5924;51.398;7.088;2024-01-11T10:03:35;-5.30;99.90
11736;DHT22;5924;51.398;7.088;2024-01-11T10:06:01;-5.20;99.90
11736;DHT22;5924;51.398;7.088;2024-01-11T10:08:28;-5.10;99.90
11736;DHT22;5924;51.398;7.088;2024-01-11T10:10:55;-5.00;99.90
11736;DHT22;5924;51.398;7.088;2024-01-11T10:13:32;-4.80;99.90
11736;DHT22;5924;51.398;7.088;2024-01-11T10:16:16;-4.90;99.90
11736;DHT22;5924;51.398;7.088;2024-01-11T10:18:42;-4.80;99.90
11736;DHT22;5924;51.398;7.088;2024-01-11T10:21:07;-4.70;99.90
11736;DHT22;5924;51.398;7.088;2024-01-11T10:23:36;-4.60;99.90
11736;DHT22;5924;51.398;7.088;2024-01-11T10:26:01;-4.50;99.90
11736;DHT22;5924;51.398;7.088;2024-01-11T10:28:28;-4.40;99.90
11736;DHT22;5924;51.398;7.088;2024-01-11T10:30:54;-4.30;99.90
11736;DHT22;5924;51.398;7.088;2024-01-11T10:33:21;-4.20;99.90
11736;DHT22;5924;51.398;7.088;2024-01-11T10:35:48;-4.10;99.90
11736;DHT22;5924;51.398;7.088;2024-01-11T10:38:18;-4.00;99.90
11736;DHT22;5924;51.398;7.088;2024-01-11T10:40:44;-3.90;99.90
11736;DHT22;5924;51.398;7.088;2024-01-11T10:43:11;-3.70;99.90
11736;DHT22;5924;51.398;7.088;2024-01-11T10:45:37;-3.60;99.90
11736;DHT22;5924;51.398;7.088;2024-01-11T10:48:16;-3.50;99.90
11736;DHT22;5924;51.398;7.088;2024-01-11T10:50:45;-3.30;99.90
11736;DHT22;5924;51.398;7.088;2024-01-11T10:56:01;-3.30;99.90
11736;DHT22;5924;51.398;7.088;2024-01-11T10:58:29;-3.00;99.90
11736;DHT22;5924;51.398;7.088;2024-01-11T11:00:56;-2.90;99.90
11736;DHT22;5924;51.398;7.088;2024-01-11T11:03:26;-2.80;99.90
11736;DHT22;5924;51.398;7.088;2024-01-11T11:05:53;-4.60;99.90
11736;DHT22;5924;51.398;7.088;2024-01-11T11:08:22;-2.50;99.90
11736;DHT22;5924;51.398;7.088;2024-01-11T11:10:52;-2.50;99.90
11736;DHT22;5924;51.398;7.088;2024-01-11T11:13:21;-2.40;99.90
11736;DHT22;5924;51.398;7.088;2024-01-11T11:15:47;-2.30;99.90
11736;DHT22;5924;51.398;7.088;2024-01-11T11:18:15;-2.20;99.90
11736;DHT22;5924;51.398;7.088;2024-01-11T11:20:42;-2.10;99.90
11736;DHT22;5924;51.398;7.088;2024-01-11T11:23:09;-2.10;99.90
11736;DHT22;5924;51.398;7.088;2024-01-11T11:25:43;-2.00;99.90
11736;DHT22;5924;51.398;7.088;2024-01-11T11:28:12;-1.90;99.90
11736;DHT22;5924;51.398;7.088;2024-01-11T11:30:40;-1.80;99.90
11736;DHT22;5924;51.398;7.088;2024-01-11T11:33:17;-1.70;99.90
11736;DHT22;5924;51.398;7.088;2024-01-11T11:35:43;-1.60;99.90
11736;DHT22;5924;51.398;7.088;2024-01-11T11:38:17;-1.60;99.90
11736;DHT22;5924;51.398;7.088;2024-01-11T11:40:43;-1.50;99.90
11736;DHT22;5924;51.398;7.088;2024-01-11T11:43:11;-1.40;99.90
11736;DHT22;5924;51.398;7.088;2024-01-11T11:45:37;-1.40;99.90
11736;DHT22;5924;51.398;7.088;2024-01-11T11:51:12;-1.20;99.90
11736;DHT22;5924;51.398;7.088;2024-01-11T11:53:39;-1.10;99.90
11736;DHT22;5924;51.398;7.088;2024-01-11T11:56:06;1.80;99.90
11736;DHT22;5924;51.398;7.088;2024-01-11T11:58:33;-1.00;99.90
11736;DHT22;5924;51.398;7.088;2024-01-11T12:01:00;-0.80;99.90
11736;DHT22;5924;51.398;7.088;2024-01-11T12:03:29;-0.90;99.90
11736;DHT22;5924;51.398;7.088;2024-01-11T12:05:59;-0.80;99.90
11736;DHT22;5924;51.398;7.088;2024-01-11T12:08:25;-0.80;99.90
11736;DHT22;5924;51.398;7.088;2024-01-11T12:10:52;-0.70;99.90
11736;DHT22;5924;51.398;7.088;2024-01-11T12:13:18;-0.70;99.90
11736;DHT22;5924;51.398;7.088;2024-01-11T12:15:44;-0.60;99.90
11736;DHT22;5924;51.398;7.088;2024-01-11T12:18:09;-0.60;99.90
11736;DHT22;5924;51.398;7.088;2024-01-11T12:20:35;-0.50;99.90
11736;DHT22;5924;51.398;7.088;2024-01-11T12:23:01;-0.50;99.90
11736;DHT22;5924;51.398;7.088;2024-01-11T12:25:30;-0.40;99.90
11736;DHT22;5924;51.398;7.088;2024-01-11T12:27:57;-0.40;99.90
11736;DHT22;5924;51.398;7.088;2024-01-11T12:30:24;-0.40;99.90
11736;DHT22;5924;51.398;7.088;2024-01-11T12:32:50;-0.40;99.90
11736;DHT22;5924;51.398;7.088;2024-01-11T12:35:17;-0.40;99.90
11736;DHT22;5924;51.398;7.088;2024-01-11T12:38:01;-0.30;99.90
11736;DHT22;5924;51.398;7.088;2024-01-11T12:40:34;-0.30;99.90
11736;DHT22;5924;51.398;7.088;2024-01-11T12:43:00;-0.30;99.90
11736;DHT22;5924;51.398;7.088;2024-01-11T12:45:26;-0.30;99.90
11736;DHT22;5924;51.398;7.088;2024-01-11T12:47:53;-0.30;99.90
11736;DHT22;5924;51.398;7.088;2024-01-11T12:50:20;-0.30;99.90
11736;DHT22;5924;51.398;7.088;2024-01-11T12:52:46;-0.30;99.90
11736;DHT22;5924;51.398;7.088;2024-01-11T12:55:19;-0.30;99.90
11736;DHT22;5924;51.398;7.088;2024-01-11T12:57:46;-0.30;99.90
11736;DHT22;5924;51.398;7.088;2024-01-11T13:00:13;-0.30;99.90
11736;DHT22;5924;51.398;7.088;2024-01-11T13:02:39;-0.30;99.90
11736;DHT22;5924;51.398;7.088;2024-01-11T13:05:06;-0.20;99.90
11736;DHT22;5924;51.398;7.088;2024-01-11T13:07:33;-0.20;99.90
11736;DHT22;5924;51.398;7.088;2024-01-11T13:09:59;-0.20;99.90
11736;DHT22;5924;51.398;7.088;2024-01-11T13:12:25;-0.20;99.90
11736;DHT22;5924;51.398;7.088;2024-01-11T13:14:50;-0.20;99.90
11736;DHT22;5924;51.398;7.088;2024-01-11T13:17:18;-0.10;99.90
11736;DHT22;5924;51.398;7.088;2024-01-11T13:19:44;-0.20;99.90
11736;DHT22;5924;51.398;7.088;2024-01-11T13:22:10;-0.20;99.90
11736;DHT22;5924;51.398;7.088;2024-01-11T13:24:36;-0.10;99.90
11736;DHT22;5924;51.398;7.088;2024-01-11T13:27:01;-0.10;99.90
11736;DHT22;5924;51.398;7.088;2024-01-11T13:29:27;-0.10;99.90
11736;DHT22;5924;51.398;7.088;2024-01-11T13:31:53;-0.10;99.90
11736;DHT22;5924;51.398;7.088;2024-01-11T13:34:19;0.00;99.90
11736;DHT22;5924;51.398;7.088;2024-01-11T13:36:44;0.00;99.90
11736;DHT22;5924;51.398;7.088;2024-01-11T13:39:10;0.00;99.90
11736;DHT22;5924;51.398;7.088;2024-01-11T13:41:36;0.10;99.90
11736;DHT22;5924;51.398;7.088;2024-01-11T13:44:02;0.10;99.90
11736;DHT22;5924;51.398;7.088;2024-01-11T13:46:31;0.10;99.90
11736;DHT22;5924;51.398;7.088;2024-01-11T13:48:57;0.10;99.90
11736;DHT22;5924;51.398;7.088;2024-01-11T13:51:23;1.80;99.90
11736;DHT22;5924;51.398;7.088;2024-01-11T13:53:49;0.10;99.90
11736;DHT22;5924;51.398;7.088;2024-01-11T13:56:14;0.10;99.90
11736;DHT22;5924;51.398;7.088;2024-01-11T13:58:40;0.10;99.90
11736;DHT22;5924;51.398;7.088;2024-01-11T14:01:06;0.10;99.90
11736;DHT22;5924;51.398;7.088;2024-01-11T14:03:33;0.10;99.90
11736;DHT22;5924;51.398;7.088;2024-01-11T14:05:59;0.10;99.90
11736;DHT22;5924;51.398;7.088;2024-01-11T14:08:25;0.10;99.90
11736;DHT22;5924;51.398;7.088;2024-01-11T14:10:51;0.20;99.90
11736;DHT22;5924;51.398;7.088;2024-01-11T14:13:18;0.10;99.90
11736;DHT22;5924;51.398;7.088;2024-01-11T14:15:44;0.10;99.90
11736;DHT22;5924;51.398;7.088;2024-01-11T14:18:10;0.10;99.90
11736;DHT22;5924;51.398;7.088;2024-01-11T14:20:36;0.10;99.90
11736;DHT22;5924;51.398;7.088;2024-01-11T14:23:01;0.30;99.90
11736;DHT22;5924;51.398;7.088;2024-01-11T14:25:27;0.40;99.90
11736;DHT22;5924;51.398;7.088;2024-01-11T14:27:54;0.40;99.90
11736;DHT22;5924;51.398;7.088;2024-01-11T14:30:22;0.40;99.90
11736;DHT22;5924;51.398;7.088;2024-01-11T14:32:48;0.30;99.90
11736;DHT22;5924;51.398;7.088;2024-01-11T14:35:14;0.20;99.90
11736;DHT22;5924;51.398;7.088;2024-01-11T14:37:40;0.10;99.90
11736;DHT22;5924;51.398;7.088;2024-01-11T14:40:07;0.10;99.90
11736;DHT22;5924;51.398;7.088;2024-01-11T14:42:35;0.00;99.90
11736;DHT22;5924;51.398;7.088;2024-01-11T14:45:02;-0.10;99.90
11736;DHT22;5924;51.398;7.088;2024-01-11T14:47:29;-0.10;99.90
11736;DHT22;5924;51.398;7.088;2024-01-11T14:49:57;-0.20;99.90
11736;DHT22;5924;51.398;7.088;2024-01-11T14:52:23;-0.20;99.90
11736;DHT22;5924;51.398;7.088;2024-01-11T14:54:48;-0.30;99.90
11736;DHT22;5924;51.398;7.088;2024-01-11T14:57:15;-0.30;99.90
11736;DHT22;5924;51.398;7.088;2024-01-11T14:59:40;-0.40;99.90
11736;DHT22;5924;51.398;7.088;2024-01-11T15:02:06;-0.40;99.90
11736;DHT22;5924;51.398;7.088;2024-01-11T15:04:32;-0.40;99.90
11736;DHT22;5924;51.398;7.088;2024-01-11T15:06:57;-0.50;99.90
11736;DHT22;5924;51.398;7.088;2024-01-11T15:09:23;-0.50;99.90
11736;DHT22;5924;51.398;7.088;2024-01-11T15:11:51;-0.50;99.90
11736;DHT22;5924;51.398;7.088;2024-01-11T15:14:17;-0.50;99.90
11736;DHT22;5924;51.398;7.088;2024-01-11T15:16:43;1.30;99.90
11736;DHT22;5924;51.398;7.088;2024-01-11T15:19:11;-0.50;99.90
11736;DHT22;5924;51.398;7.088;2024-01-11T15:21:38;-0.40;99.90
11736;DHT22;5924;51.398;7.088;2024-01-11T15:24:04;-0.40;99.90
11736;DHT22;5924;51.398;7.088;2024-01-11T15:26:30;-0.40;99.90
11736;DHT22;5924;51.398;7.088;2024-01-11T15:28:55;-0.40;99.90
11736;DHT22;5924;51.398;7.088;2024-01-11T15:31:21;-0.50;99.90
11736;DHT22;5924;51.398;7.088;2024-01-11T15:33:47;-0.60;99.90
11736;DHT22;5924;51.398;7.088;2024-01-11T15:36:12;-0.70;99.90
11736;DHT22;5924;51.398;7.088;2024-01-11T15:38:38;-0.80;99.90
11736;DHT22;5924;51.398;7.088;2024-01-11T15:41:04;-0.90;99.90
11736;DHT22;5924;51.398;7.088;2024-01-11T15:43:32;-1.00;99.90
11736;DHT22;5924;51.398;7.088;2024-01-11T15:45:58;-1.10;99.90
11736;DHT22;5924;51.398;7.088;2024-01-11T15:48:24;-1.20;99.90